Time;durP1;ratioP1;P1;durP2;ratioP2;P2;SDS_P1;SDS_P2;PMS_P1;PMS_P2;Temp;Humidity;BMP_temperature;BMP_pressure;BME280_temperature;BME280_humidity;BME280_pressure;Samples;Min_cycle;Max_cycle;Signal;HPM_P1;HPM_P2
2021/04/30 00:00:40;;;;;;;8.23;3.85;;;9.60;99.90;;;;;;5015335;28;20029;-80
2021/04/30 00:03:06;;;;;;;5.35;3.80;;;9.70;99.90;;;;;;5033093;28;20083;-80
2021/04/30 00:05:33;;;;;;;3.92;3.30;;;9.40;99.90;;;;;;5033057;28;20060;-80
2021/04/30 00:08:00;;;;;;;6.10;4.00;;;9.60;99.90;;;;;;5033026;28;20025;-80
2021/04/30 00:10:27;;;;;;;4.53;3.70;;;9.80;99.90;;;;;;5015284;28;20378;-80
2021/04/30 00:12:54;;;;;;;8.02;3.70;;;9.80;99.90;;;;;;5015196;28;20029;-80
2021/04/30 00:15:20;;;;;;;5.55;3.30;;;9.90;99.90;;;;;;5032977;28;20018;-80
2021/04/30 00:17:46;;;;;;;5.05;3.42;;;9.80;99.90;;;;;;5015242;28;20032;-80
2021/04/30 00:20:13;;;;;;;8.35;3.92;;;9.60;99.90;;;;;;5032952;28;20022;-80
2021/04/30 00:22:39;;;;;;;6.35;3.92;;;9.60;99.90;;;;;;5015156;28;20592;-80
2021/04/30 00:25:06;;;;;;;3.42;3.13;;;9.50;99.90;;;;;;5015189;28;20116;-80
2021/04/30 00:27:32;;;;;;;5.00;3.20;;;9.40;99.90;;;;;;5015112;28;20481;-80
2021/04/30 00:29:57;;;;;;;7.07;3.42;;;9.60;99.90;;;;;;5033677;28;20030;-80
2021/04/30 00:32:23;;;;;;;3.70;3.17;;;9.90;99.90;;;;;;5018820;28;20044;-80
2021/04/30 00:34:49;;;;;;;8.60;4.28;;;10.00;99.90;;;;;;5018828;28;20048;-80
2021/04/30 00:37:15;;;;;;;4.50;3.55;;;9.90;99.90;;;;;;5036722;28;20021;-80
2021/04/30 00:39:41;;;;;;;5.55;3.95;;;9.80;99.90;;;;;;5036508;28;20018;-80
2021/04/30 00:42:07;;;;;;;8.10;4.07;;;9.90;99.90;;;;;;5018743;28;20029;-80
2021/04/30 00:44:32;;;;;;;5.50;4.10;;;9.70;99.90;;;;;;5036354;28;20026;-80
2021/04/30 00:46:58;;;;;;;8.18;4.63;;;9.50;99.90;;;;;;5018625;28;20511;-80
2021/04/30 00:49:24;;;;;;;5.05;4.38;;;9.40;99.90;;;;;;5018558;28;20033;-80
2021/04/30 00:51:50;;;;;;;5.05;3.35;;;9.40;99.90;;;;;;5036136;28;20033;-80
2021/04/30 00:54:16;;;;;;;5.65;3.80;;;9.40;99.90;;;;;;5036213;28;20500;-80
2021/04/30 00:56:42;;;;;;;6.07;4.00;;;9.80;99.90;;;;;;5018437;28;20069;-80
2021/04/30 00:59:08;;;;;;;6.68;3.65;;;9.80;99.90;;;;;;5036098;28;20032;-80
2021/04/30 01:01:34;;;;;;;8.43;4.15;;;9.90;99.90;;;;;;5018278;28;20028;-80
2021/04/30 01:04:00;;;;;;;6.53;4.40;;;10.00;99.90;;;;;;5018296;28;20120;-80
2021/04/30 01:06:26;;;;;;;5.38;4.18;;;9.90;99.90;;;;;;5018168;28;20033;-80
2021/04/30 01:08:51;;;;;;;5.80;3.78;;;9.90;99.90;;;;;;5018220;28;20029;-80
2021/04/30 01:11:17;;;;;;;4.65;3.80;;;9.90;99.90;;;;;;5035813;28;20030;-80
2021/04/30 01:13:43;;;;;;;6.38;3.80;;;9.70;99.90;;;;;;5018020;28;20092;-80
2021/04/30 01:16:09;;;;;;;6.55;3.65;;;9.50;99.90;;;;;;5035794;28;20109;-80
2021/04/30 01:18:43;;;;;;;6.57;3.80;;;9.80;99.90;;;;;;5035770;28;20024;-80
2021/04/30 01:21:10;;;;;;;6.60;4.10;;;9.70;99.90;;;;;;5017966;28;20033;-80
2021/04/30 01:23:49;;;;;;;7.13;4.60;;;9.70;99.90;;;;;;5017871;28;20117;-80
2021/04/30 01:26:16;;;;;;;6.85;4.40;;;9.50;99.90;;;;;;5035597;28;20104;-80
2021/04/30 01:28:41;;;;;;;5.75;4.28;;;9.50;99.90;;;;;;5018109;28;20064;-80
2021/04/30 01:31:07;;;;;;;6.75;4.30;;;9.60;99.90;;;;;;5035284;28;20454;-80
2021/04/30 01:33:33;;;;;;;7.47;4.85;;;9.60;99.90;;;;;;5035988;28;20358;-80
2021/04/30 01:35:59;;;;;;;4.85;4.18;;;9.50;99.90;;;;;;5017657;28;20029;-80
2021/04/30 01:38:25;;;;;;;6.57;5.15;;;9.60;99.90;;;;;;5017590;28;20017;-80
2021/04/30 01:40:51;;;;;;;4.60;3.75;;;9.70;99.90;;;;;;5034887;28;20096;-80
2021/04/30 01:43:19;;;;;;;7.07;4.40;;;9.70;99.90;;;;;;5035541;28;20053;-80
2021/04/30 01:45:59;;;;;;;6.13;4.10;;;10.00;99.90;;;;;;5035178;28;20052;-80
2021/04/30 01:48:27;;;;;;;5.68;3.90;;;10.10;99.90;;;;;;5035254;28;20382;-80
2021/04/30 01:50:54;;;;;;;5.28;3.80;;;10.40;99.90;;;;;;5017316;28;20028;-80
2021/04/30 01:53:29;;;;;;;6.15;4.32;;;10.40;99.90;;;;;;5035048;28;20049;-80
2021/04/30 01:55:56;;;;;;;5.95;3.58;;;10.30;99.90;;;;;;5035041;28;20021;-80
2021/04/30 01:58:22;;;;;;;6.00;3.60;;;10.10;99.90;;;;;;5017240;28;20021;-80
2021/04/30 02:00:48;;;;;;;5.40;4.00;;;10.10;99.90;;;;;;5034958;28;20381;-80
2021/04/30 02:03:14;;;;;;;5.38;3.95;;;10.20;99.90;;;;;;5034942;28;20032;-80
2021/04/30 02:05:41;;;;;;;4.55;3.95;;;10.10;99.90;;;;;;5017079;28;20026;-80
2021/04/30 02:08:11;;;;;;;5.55;4.72;;;10.10;99.90;;;;;;5017381;28;20488;-80
2021/04/30 02:10:37;;;;;;;6.45;5.38;;;10.00;99.90;;;;;;5017849;28;20031;-80
2021/04/30 02:13:04;;;;;;;7.07;5.25;;;10.00;99.90;;;;;;5016865;28;20040;-80
2021/04/30 02:15:39;;;;;;;5.10;4.13;;;9.80;99.90;;;;;;5016914;28;20029;-80
2021/04/30 02:18:05;;;;;;;5.40;4.85;;;9.70;99.90;;;;;;5034651;28;20022;-80
2021/04/30 02:20:31;;;;;;;10.13;5.15;;;9.60;99.90;;;;;;5016813;28;20441;-80
2021/04/30 02:22:57;;;;;;;5.50;4.10;;;9.60;99.90;;;;;;5016797;28;20021;-80
2021/04/30 02:25:23;;;;;;;7.72;4.65;;;9.50;99.90;;;;;;5034437;28;20030;-80
2021/04/30 02:27:51;;;;;;;5.07;4.45;;;9.70;99.90;;;;;;5016667;28;20036;-80
2021/04/30 02:30:19;;;;;;;5.85;5.15;;;9.70;99.90;;;;;;5021516;28;20033;-80
2021/04/30 02:32:46;;;;;;;8.35;5.07;;;9.50;99.90;;;;;;5052976;28;20107;-80
2021/04/30 02:35:16;;;;;;;6.13;5.22;;;9.50;99.90;;;;;;5054316;28;20021;-80
2021/04/30 02:37:44;;;;;;;7.00;5.45;;;9.60;99.90;;;;;;5052960;28;20021;-80
2021/04/30 02:40:11;;;;;;;6.53;5.47;;;9.30;99.90;;;;;;5054202;28;20499;-80
2021/04/30 02:42:37;;;;;;;8.48;5.72;;;9.40;99.90;;;;;;5052819;28;20060;-81
2021/04/30 02:45:05;;;;;;;7.70;4.47;;;9.40;99.90;;;;;;5054459;28;20531;-80
2021/04/30 02:47:32;;;;;;;6.45;4.93;;;9.20;99.90;;;;;;5052780;28;20051;-80
2021/04/30 02:49:59;;;;;;;8.70;5.72;;;9.30;99.90;;;;;;5052756;28;20443;-80
2021/04/30 02:52:25;;;;;;;8.15;5.20;;;9.20;99.90;;;;;;5053111;28;20049;-80
2021/04/30 02:54:52;;;;;;;8.27;5.72;;;9.10;99.90;;;;;;5053978;28;20075;-80
2021/04/30 02:57:18;;;;;;;5.60;4.30;;;9.00;99.90;;;;;;5053823;28;20017;-80
2021/04/30 02:59:44;;;;;;;6.82;5.32;;;9.20;99.90;;;;;;5053888;28;20581;-80
2021/04/30 03:02:09;;;;;;;6.32;4.63;;;9.40;99.90;;;;;;5054060;28;20104;-80
2021/04/30 03:04:35;;;;;;;5.55;4.85;;;9.80;99.90;;;;;;5052452;28;20028;-80
2021/04/30 03:07:01;;;;;;;6.85;5.43;;;9.90;99.90;;;;;;5052463;28;20029;-80
2021/04/30 03:09:27;;;;;;;5.88;5.28;;;9.90;99.90;;;;;;5052372;28;20028;-80
2021/04/30 03:11:53;;;;;;;9.63;5.95;;;9.90;99.90;;;;;;5052245;28;20124;-80
2021/04/30 03:14:18;;;;;;;4.40;4.00;;;9.90;99.90;;;;;;5053870;28;20028;-80
2021/04/30 03:16:44;;;;;;;6.60;4.90;;;9.80;99.90;;;;;;5052386;28;20496;-80
2021/04/30 03:19:10;;;;;;;11.25;6.18;;;9.60;99.90;;;;;;5053561;28;20074;-80
2021/04/30 03:21:36;;;;;;;8.20;5.60;;;9.50;99.90;;;;;;5053112;28;20037;-80
2021/04/30 03:24:04;;;;;;;7.55;5.30;;;9.40;99.90;;;;;;5054020;28;20419;-80
2021/04/30 03:26:29;;;;;;;6.38;5.25;;;9.50;99.90;;;;;;5052204;28;20021;-80
2021/04/30 03:28:55;;;;;;;10.18;5.90;;;9.30;99.90;;;;;;5053420;28;20032;-80
2021/04/30 03:31:21;;;;;;;6.65;5.63;;;9.10;99.90;;;;;;5051797;28;20500;-80
2021/04/30 03:33:46;;;;;;;7.75;5.47;;;9.60;99.90;;;;;;5052042;28;20476;-80
2021/04/30 03:36:12;;;;;;;5.60;4.90;;;9.70;99.90;;;;;;5052063;28;20108;-80
2021/04/30 03:38:38;;;;;;;5.75;5.13;;;9.80;99.90;;;;;;5053237;28;20496;-80
2021/04/30 03:41:04;;;;;;;7.47;5.68;;;9.70;99.90;;;;;;5053223;28;20021;-80
2021/04/30 03:43:29;;;;;;;10.32;6.78;;;9.50;99.90;;;;;;5053250;28;20021;-80
2021/04/30 03:45:55;;;;;;;8.88;6.68;;;9.20;99.90;;;;;;5051888;28;20064;-80
2021/04/30 03:48:22;;;;;;;7.28;5.18;;;9.10;99.90;;;;;;5053123;28;20040;-80
2021/04/30 03:50:48;;;;;;;7.60;4.95;;;9.20;99.90;;;;;;5051867;28;20021;-80
2021/04/30 03:53:14;;;;;;;12.85;7.53;;;9.40;99.90;;;;;;5051769;28;20025;-80
2021/04/30 03:55:40;;;;;;;7.47;5.65;;;9.60;99.90;;;;;;5051789;28;20021;-80
2021/04/30 03:58:06;;;;;;;7.18;5.88;;;9.60;99.90;;;;;;5051820;28;20025;-80
2021/04/30 04:00:31;;;;;;;40.78;18.65;;;9.80;99.90;;;;;;5051781;28;20021;-80
2021/04/30 04:02:57;;;;;;;7.75;5.63;;;9.70;99.90;;;;;;5051702;28;20033;-80
2021/04/30 04:05:23;;;;;;;6.93;6.20;;;9.80;99.90;;;;;;5056523;28;20033;-80
2021/04/30 04:07:49;;;;;;;8.55;6.10;;;9.60;99.90;;;;;;5055767;28;20035;-80
2021/04/30 04:10:14;;;;;;;9.98;6.53;;;9.20;99.90;;;;;;5055704;28;20025;-80
2021/04/30 04:12:41;;;;;;;7.38;6.57;;;9.10;99.90;;;;;;5055514;28;20028;-80
2021/04/30 04:15:07;;;;;;;6.85;6.13;;;8.90;99.90;;;;;;5055673;28;20115;-80
2021/04/30 04:17:34;;;;;;;7.00;6.10;;;9.10;99.90;;;;;;5055560;28;20078;-80
2021/04/30 04:19:59;;;;;;;9.63;6.30;;;9.30;99.90;;;;;;5056880;28;20560;-80
2021/04/30 04:22:25;;;;;;;8.30;6.40;;;9.40;99.90;;;;;;5055506;28;20056;-80
2021/04/30 04:24:51;;;;;;;7.63;6.15;;;9.30;99.90;;;;;;5056826;28;20029;-80
2021/04/30 04:27:17;;;;;;;8.25;5.22;;;9.40;99.90;;;;;;5056655;28;20029;-80
2021/04/30 04:29:43;;;;;;;6.50;5.80;;;9.60;99.90;;;;;;5057178;28;20116;-80
2021/04/30 04:32:09;;;;;;;8.38;5.63;;;9.90;99.90;;;;;;5055171;28;20052;-81
2021/04/30 04:34:35;;;;;;;7.85;5.47;;;9.80;99.90;;;;;;5055290;28;20025;-80
2021/04/30 04:37:01;;;;;;;7.07;5.30;;;9.50;99.90;;;;;;5056590;28;20025;-80
2021/04/30 04:39:29;;;;;;;14.40;6.32;;;9.80;99.90;;;;;;5056727;28;20380;-80
2021/04/30 04:41:55;;;;;;;9.65;6.05;;;9.80;99.90;;;;;;5056468;28;20468;-80
2021/04/30 04:44:21;;;;;;;9.15;7.03;;;9.80;99.90;;;;;;5056373;28;20493;-80
2021/04/30 04:46:46;;;;;;;8.20;6.38;;;9.70;99.90;;;;;;5055052;28;20033;-80
2021/04/30 04:49:12;;;;;;;7.70;5.85;;;9.60;99.90;;;;;;5055000;28;20031;-80
2021/04/30 04:51:38;;;;;;;9.52;6.32;;;9.30;99.90;;;;;;5054940;28;20554;-81
2021/04/30 04:54:06;;;;;;;12.05;7.80;;;9.50;99.90;;;;;;5054966;28;20068;-80
2021/04/30 04:56:32;;;;;;;10.77;7.32;;;9.30;99.90;;;;;;5054911;28;20025;-81
2021/04/30 04:58:58;;;;;;;11.70;7.30;;;9.20;99.90;;;;;;5038165;28;20584;-81
2021/04/30 05:01:24;;;;;;;9.95;7.05;;;9.30;99.90;;;;;;5055983;28;20036;-80
2021/04/30 05:03:50;;;;;;;11.38;8.68;;;9.20;99.90;;;;;;5054724;28;20507;-80
2021/04/30 05:06:16;;;;;;;8.85;5.60;;;9.40;99.90;;;;;;5056268;28;20071;-80
2021/04/30 05:08:42;;;;;;;8.93;6.47;;;9.30;99.90;;;;;;5055895;28;20473;-80
2021/04/30 05:11:07;;;;;;;12.02;8.90;;;9.50;99.90;;;;;;5056057;28;20092;-81
2021/04/30 05:13:34;;;;;;;12.43;9.13;;;9.30;99.90;;;;;;5055832;28;20496;-80
2021/04/30 05:16:01;;;;;;;14.73;9.30;;;9.30;99.90;;;;;;5055038;28;20381;-81
2021/04/30 05:18:27;;;;;;;7.50;6.53;;;9.30;99.90;;;;;;5054745;28;20109;-81
2021/04/30 05:20:54;;;;;;;13.23;8.70;;;9.10;99.90;;;;;;5054415;28;20035;-81
2021/04/30 05:23:21;;;;;;;13.35;8.52;;;9.40;99.90;;;;;;5055615;28;20402;-81
2021/04/30 05:25:48;;;;;;;8.82;7.38;;;9.30;99.90;;;;;;5054257;28;20025;-80
2021/04/30 05:28:15;;;;;;;7.82;6.80;;;9.10;99.90;;;;;;5055746;28;20445;-80
2021/04/30 05:30:41;;;;;;;11.32;8.30;;;9.20;99.90;;;;;;5047836;28;20448;-81
2021/04/30 05:33:07;;;;;;;13.73;9.50;;;9.20;99.90;;;;;;5018618;28;20038;-81
2021/04/30 05:35:33;;;;;;;13.25;8.95;;;9.10;99.90;;;;;;5017714;28;20079;-81
2021/04/30 05:37:59;;;;;;;9.25;7.60;;;9.10;99.90;;;;;;5017653;28;20109;-81
2021/04/30 05:40:25;;;;;;;17.20;9.07;;;9.00;99.90;;;;;;5017622;28;20087;-81
2021/04/30 05:42:51;;;;;;;10.73;7.90;;;9.20;99.90;;;;;;5017638;28;20026;-81
2021/04/30 05:45:18;;;;;;;11.27;8.18;;;9.40;99.90;;;;;;5035582;28;20029;-81
2021/04/30 05:47:44;;;;;;;9.57;7.88;;;9.60;99.90;;;;;;5035621;28;20437;-81
2021/04/30 05:50:11;;;;;;;8.73;7.68;;;9.60;99.90;;;;;;5017493;28;20064;-81
2021/04/30 05:52:36;;;;;;;10.90;7.90;;;9.50;99.90;;;;;;5035094;28;20534;-81
2021/04/30 05:55:04;;;;;;;10.77;8.23;;;9.50;99.90;;;;;;5035097;28;20100;-81
2021/04/30 05:57:30;;;;;;;9.38;7.85;;;9.60;99.90;;;;;;5017289;28;20495;-81
2021/04/30 05:59:56;;;;;;;11.45;7.75;;;9.50;99.90;;;;;;5017371;28;20060;-81
2021/04/30 06:02:22;;;;;;;11.27;9.00;;;9.50;99.90;;;;;;5017292;28;20035;-81
2021/04/30 06:04:47;;;;;;;8.40;7.22;;;9.60;99.90;;;;;;5017222;28;20041;-81
2021/04/30 06:07:13;;;;;;;10.55;7.70;;;9.60;99.90;;;;;;5034889;28;20036;-81
2021/04/30 06:09:39;;;;;;;11.77;8.68;;;9.60;99.90;;;;;;5035114;28;20021;-81
2021/04/30 06:12:06;;;;;;;10.25;7.38;;;9.60;99.90;;;;;;5034790;28;20470;-81
2021/04/30 06:14:33;;;;;;;15.15;8.82;;;9.50;99.90;;;;;;5017011;28;20076;-81
2021/04/30 06:17:03;;;;;;;14.55;7.93;;;9.60;99.90;;;;;;5017007;28;20468;-81
2021/04/30 06:19:30;;;;;;;22.27;8.30;;;9.70;99.90;;;;;;5034955;28;20021;-81
2021/04/30 06:21:56;;;;;;;11.90;8.38;;;9.60;99.90;;;;;;5016824;28;20029;-81
2021/04/30 06:24:23;;;;;;;10.63;6.88;;;9.50;99.90;;;;;;5016861;28;20048;-81
2021/04/30 06:26:49;;;;;;;11.57;8.10;;;9.60;99.90;;;;;;5034592;28;20108;-82
2021/04/30 06:29:14;;;;;;;11.02;8.60;;;9.60;99.90;;;;;;5034486;28;20496;-81
2021/04/30 06:31:41;;;;;;;11.30;8.18;;;9.70;99.90;;;;;;5044158;28;20037;-82
2021/04/30 06:34:07;;;;;;;14.48;9.13;;;9.70;99.90;;;;;;5054336;28;20025;-81
2021/04/30 06:36:33;;;;;;;11.15;7.82;;;9.70;99.90;;;;;;5053065;28;20028;-82
2021/04/30 06:39:00;;;;;;;13.90;7.93;;;9.90;99.90;;;;;;5052878;28;20030;-82
2021/04/30 06:41:26;;;;;;;9.65;7.28;;;9.70;99.90;;;;;;5052955;28;20087;-82
2021/04/30 06:43:52;;;;;;;15.82;7.60;;;9.90;99.90;;;;;;5054149;28;20052;-81
2021/04/30 06:46:19;;;;;;;10.43;7.35;;;10.00;99.90;;;;;;5054170;28;20075;-82
2021/04/30 06:48:46;;;;;;;10.82;8.43;;;10.00;99.90;;;;;;5052972;28;20031;-81
2021/04/30 06:51:12;;;;;;;9.95;6.93;;;9.70;99.90;;;;;;5052722;28;20029;-81
2021/04/30 06:53:38;;;;;;;12.27;8.63;;;9.80;99.90;;;;;;5052707;28;20078;-82
2021/04/30 06:56:04;;;;;;;13.75;8.68;;;9.70;99.90;;;;;;5052630;28;20115;-82
2021/04/30 06:58:29;;;;;;;10.00;7.95;;;9.80;99.90;;;;;;5053930;28;20029;-83
2021/04/30 07:00:55;;;;;;;12.63;8.70;;;9.70;99.90;;;;;;5054113;28;20086;-82
2021/04/30 07:03:21;;;;;;;12.23;8.63;;;9.80;99.90;;;;;;5052605;28;20400;-82
2021/04/30 07:05:46;;;;;;;14.95;8.90;;;10.00;99.90;;;;;;5054127;28;20017;-82
2021/04/30 07:08:12;;;;;;;11.10;8.07;;;10.00;99.90;;;;;;5052441;28;20025;-82
2021/04/30 07:10:38;;;;;;;10.90;8.10;;;10.10;99.90;;;;;;5052433;28;20029;-82
2021/04/30 07:13:11;;;;;;;14.80;9.00;;;10.00;99.90;;;;;;5053527;28;20091;-82
2021/04/30 07:15:37;;;;;;;13.63;9.07;;;9.90;99.90;;;;;;5052300;28;20027;-83
2021/04/30 07:18:03;;;;;;;10.05;8.35;;;9.90;99.90;;;;;;5052279;28;20029;-82
2021/04/30 07:20:30;;;;;;;15.40;9.05;;;10.00;99.90;;;;;;5052223;28;20023;-82
2021/04/30 07:22:57;;;;;;;17.55;9.23;;;10.00;99.90;;;;;;5052224;28;20078;-82
2021/04/30 07:25:23;;;;;;;12.40;8.07;;;9.90;99.90;;;;;;5053402;28;20033;-82
2021/04/30 07:27:49;;;;;;;12.52;9.07;;;9.90;99.90;;;;;;5052178;28;20485;-81
2021/04/30 07:30:15;;;;;;;19.90;9.57;;;9.80;99.90;;;;;;5051842;28;20519;-81
2021/04/30 07:32:42;;;;;;;17.90;9.57;;;9.80;99.90;;;;;;5052080;28;20053;-82
2021/04/30 07:35:08;;;;;;;13.05;8.65;;;9.90;99.90;;;;;;5052118;28;20033;-81
2021/04/30 07:37:34;;;;;;;12.02;7.85;;;9.90;99.90;;;;;;5053204;28;20048;-82
2021/04/30 07:40:00;;;;;;;13.27;8.48;;;10.10;99.90;;;;;;5053044;28;20021;-82
2021/04/30 07:42:26;;;;;;;19.00;9.93;;;10.10;99.90;;;;;;5053553;28;20025;-81
2021/04/30 07:44:52;;;;;;;13.65;9.30;;;10.20;99.90;;;;;;5051881;28;20029;-81
2021/04/30 07:47:18;;;;;;;15.50;10.25;;;10.20;99.90;;;;;;5053486;28;20167;-81
2021/04/30 07:49:43;;;;;;;13.45;8.63;;;10.20;99.90;;;;;;5051937;28;20120;-81
2021/04/30 07:52:09;;;;;;;12.75;9.32;;;10.20;99.90;;;;;;5051778;28;20477;-82
2021/04/30 07:54:35;;;;;;;11.48;8.45;;;10.00;99.90;;;;;;5053442;28;20017;-83
2021/04/30 07:57:02;;;;;;;13.18;9.05;;;10.00;99.90;;;;;;5051930;28;20540;-82
2021/04/30 07:59:29;;;;;;;10.35;8.43;;;10.10;99.90;;;;;;5053083;28;20100;-82
2021/04/30 08:01:55;;;;;;;16.90;9.63;;;10.10;99.90;;;;;;5051715;28;20021;-82
2021/04/30 08:04:21;;;;;;;15.80;9.55;;;10.10;99.90;;;;;;5035002;28;20400;-82
2021/04/30 08:06:47;;;;;;;18.55;10.73;;;10.00;99.90;;;;;;5053939;28;20491;-82
2021/04/30 08:09:12;;;;;;;13.30;9.10;;;10.00;99.90;;;;;;5052379;28;20064;-82
2021/04/30 08:11:38;;;;;;;14.73;10.13;;;9.90;99.90;;;;;;5053628;28;20029;-82
2021/04/30 08:14:07;;;;;;;12.23;9.07;;;9.90;99.90;;;;;;5053483;28;20095;-81
2021/04/30 08:16:33;;;;;;;15.85;8.73;;;10.00;99.90;;;;;;5052874;28;20028;-82
2021/04/30 08:19:00;;;;;;;11.63;7.45;;;10.10;99.90;;;;;;5051720;28;20116;-83
2021/04/30 08:21:26;;;;;;;17.67;8.57;;;10.20;99.90;;;;;;5051644;28;20111;-82
2021/04/30 08:23:52;;;;;;;11.43;8.38;;;10.00;99.90;;;;;;5051510;28;20036;-82
2021/04/30 08:26:18;;;;;;;12.45;9.43;;;9.80;99.90;;;;;;5052831;28;20033;-82
2021/04/30 08:28:43;;;;;;;16.38;10.48;;;9.80;99.90;;;;;;5052638;28;20029;-82
2021/04/30 08:31:09;;;;;;;15.30;9.50;;;9.80;99.90;;;;;;5051147;28;20048;-81
2021/04/30 08:33:35;;;;;;;10.20;7.88;;;9.70;99.90;;;;;;5052808;28;20159;-83
2021/04/30 08:36:00;;;;;;;10.48;8.55;;;9.90;99.90;;;;;;5051387;28;20021;-81
2021/04/30 08:38:26;;;;;;;12.05;9.45;;;9.90;99.90;;;;;;5051305;28;20021;-82
2021/04/30 08:40:52;;;;;;;14.93;9.57;;;10.00;99.90;;;;;;5051349;28;20029;-81
2021/04/30 08:43:19;;;;;;;13.55;8.80;;;10.00;99.90;;;;;;5051347;28;20033;-81
2021/04/30 08:45:45;;;;;;;17.63;9.38;;;10.10;99.90;;;;;;5051257;28;20056;-81
2021/04/30 08:48:15;;;;;;;15.18;10.18;;;10.10;99.90;;;;;;5052581;28;20036;-81
2021/04/30 08:50:46;;;;;;;11.88;8.25;;;9.90;99.90;;;;;;5053391;28;20021;-81
2021/04/30 08:53:12;;;;;;;13.68;9.07;;;9.90;99.90;;;;;;5054871;28;20045;-82
2021/04/30 08:55:37;;;;;;;13.02;9.00;;;10.00;99.90;;;;;;5054874;28;20036;-82
2021/04/30 08:58:05;;;;;;;18.83;10.05;;;10.00;99.90;;;;;;5054779;28;20082;-82
2021/04/30 09:00:32;;;;;;;13.45;8.77;;;10.00;99.90;;;;;;5054754;28;20025;-82
2021/04/30 09:02:59;;;;;;;13.13;8.63;;;9.80;99.90;;;;;;5054759;28;20025;-82
2021/04/30 09:05:27;;;;;;;11.57;8.40;;;9.80;99.90;;;;;;5054711;28;20029;-80
2021/04/30 09:08:00;;;;;;;12.65;8.57;;;9.80;99.90;;;;;;5055813;28;20024;-80
2021/04/30 09:10:28;;;;;;;13.85;9.18;;;9.90;99.90;;;;;;5054558;28;20036;-81
2021/04/30 09:13:05;;;;;;;11.07;9.15;;;9.90;99.90;;;;;;5055705;28;20123;-81
2021/04/30 09:15:31;;;;;;;15.68;9.63;;;9.80;99.90;;;;;;5054515;28;20057;-81
2021/04/30 09:18:21;;;;;;;13.57;9.07;;;9.70;99.90;;;;;;5054380;28;20021;-81
2021/04/30 09:20:48;;;;;;;14.80;9.73;;;9.80;99.90;;;;;;5054449;28;20083;-81
2021/04/30 09:23:33;;;;;;;11.82;8.63;;;9.90;99.90;;;;;;5054294;28;20025;-82
2021/04/30 09:25:59;;;;;;;18.40;8.60;;;10.00;99.90;;;;;;5055634;28;20029;-82
2021/04/30 09:28:25;;;;;;;10.18;8.48;;;9.90;99.90;;;;;;5054257;28;20029;-81
2021/04/30 09:30:51;;;;;;;10.85;8.30;;;9.90;99.90;;;;;;5054021;28;20050;-81
2021/04/30 09:33:18;;;;;;;11.05;7.78;;;9.90;99.90;;;;;;5055389;28;20021;-81
2021/04/30 09:35:44;;;;;;;13.73;10.00;;;9.90;99.90;;;;;;5054047;28;20036;-81
2021/04/30 09:38:21;;;;;;;13.35;9.32;;;9.80;99.90;;;;;;5054011;28;20025;-82
2021/04/30 09:40:52;;;;;;;12.85;8.63;;;9.90;99.90;;;;;;5055212;28;20021;-81
2021/04/30 09:43:19;;;;;;;14.63;10.00;;;9.90;99.90;;;;;;5037650;28;20515;-81
2021/04/30 09:45:45;;;;;;;11.07;9.25;;;9.80;99.90;;;;;;5053939;28;20095;-81
2021/04/30 09:48:13;;;;;;;15.32;9.23;;;10.00;99.90;;;;;;5053843;28;20059;-81
2021/04/30 09:50:41;;;;;;;15.07;10.20;;;10.00;99.90;;;;;;5053827;28;20033;-82
2021/04/30 09:53:10;;;;;;;13.13;8.85;;;10.00;99.90;;;;;;5053703;28;20028;-82
2021/04/30 09:55:42;;;;;;;11.63;8.75;;;9.80;99.90;;;;;;5053702;28;20476;-82
2021/04/30 09:58:26;;;;;;;11.73;9.52;;;9.70;99.90;;;;;;5054904;28;20052;-81
2021/04/30 10:00:56;;;;;;;14.93;10.25;;;9.80;99.90;;;;;;5053761;28;20021;-82
2021/04/30 10:03:24;;;;;;;11.70;9.20;;;9.80;99.90;;;;;;5054816;28;20025;-81
2021/04/30 10:06:13;;;;;;;10.73;8.60;;;9.80;99.90;;;;;;5053522;28;20035;-82
2021/04/30 10:08:40;;;;;;;10.90;8.80;;;9.90;99.90;;;;;;5053494;28;20032;-82
2021/04/30 10:11:30;;;;;;;10.18;8.35;;;9.80;99.90;;;;;;5053461;28;20052;-82
2021/04/30 10:13:56;;;;;;;14.48;9.85;;;9.80;99.90;;;;;;5053367;28;20114;-81
2021/04/30 10:16:22;;;;;;;14.48;10.13;;;9.70;99.90;;;;;;5054696;28;20013;-82
2021/04/30 10:18:48;;;;;;;12.45;9.68;;;9.60;99.90;;;;;;5054513;28;20025;-82
2021/04/30 10:21:15;;;;;;;16.08;9.15;;;9.60;99.90;;;;;;5053362;28;20025;-81
2021/04/30 10:23:47;;;;;;;19.33;9.80;;;9.60;99.90;;;;;;5053168;28;20028;-82
2021/04/30 10:26:17;;;;;;;13.80;10.32;;;9.50;99.90;;;;;;5053485;28;20017;-82
2021/04/30 10:28:48;;;;;;;14.05;9.65;;;9.60;99.90;;;;;;5054607;28;20044;-82
2021/04/30 10:31:17;;;;;;;11.98;7.97;;;9.70;99.90;;;;;;5052841;28;20123;-81
2021/04/30 10:33:51;;;;;;;15.40;10.95;;;9.50;99.90;;;;;;5053020;28;20039;-80
2021/04/30 10:36:28;;;;;;;15.83;10.70;;;9.60;99.90;;;;;;5053094;28;20021;-81
2021/04/30 10:38:55;;;;;;;17.95;11.57;;;9.80;99.90;;;;;;5054174;28;20302;-81
2021/04/30 10:41:35;;;;;;;16.70;10.38;;;9.60;99.90;;;;;;5052867;28;20075;-82
2021/04/30 10:44:40;;;;;;;19.20;13.10;;;9.30;99.90;;;;;;5054435;28;20013;-81
2021/04/30 10:47:09;;;;;;;12.10;9.07;;;9.20;99.90;;;;;;5012571;28;20052;-80
2021/04/30 10:49:35;;;;;;;14.73;11.13;;;9.00;99.90;;;;;;5012156;28;20414;-81
2021/04/30 10:52:07;;;;;;;14.25;10.35;;;9.10;99.90;;;;;;5038766;28;20037;-81
2021/04/30 10:54:35;;;;;;;14.63;11.75;;;9.00;99.90;;;;;;5052599;28;20116;-81
2021/04/30 10:57:07;;;;;;;16.55;12.23;;;9.00;99.90;;;;;;5052568;28;20392;-81
2021/04/30 10:59:36;;;;;;;18.38;11.73;;;8.80;99.90;;;;;;5052539;28;20025;-80
2021/04/30 11:02:17;;;;;;;19.08;12.27;;;8.80;99.90;;;;;;5053766;28;20484;-80
2021/04/30 11:05:06;;;;;;;16.67;11.65;;;8.90;99.90;;;;;;5054039;28;20131;-81
2021/04/30 11:07:41;;;;;;;18.77;12.65;;;8.90;99.90;;;;;;5047434;28;20037;-80
2021/04/30 11:10:22;;;;;;;14.52;10.38;;;8.60;99.90;;;;;;5052395;28;20029;-80
2021/04/30 11:12:59;;;;;;;14.07;10.93;;;8.70;99.90;;;;;;5053306;28;20021;-80
2021/04/30 11:15:29;;;;;;;16.60;10.07;;;8.90;99.90;;;;;;5051971;28;20029;-80
2021/04/30 11:18:02;;;;;;;19.88;13.02;;;9.00;99.90;;;;;;5053753;28;20020;-81
2021/04/30 11:20:30;;;;;;;17.90;12.13;;;8.90;99.90;;;;;;5052142;28;20028;-81
2021/04/30 11:23:24;;;;;;;16.27;11.75;;;8.80;99.90;;;;;;5053654;28;20028;-81
2021/04/30 11:26:00;;;;;;;14.07;11.00;;;8.60;99.90;;;;;;5052176;28;20032;-81
2021/04/30 11:28:32;;;;;;;16.30;11.80;;;8.70;99.90;;;;;;5052101;28;20037;-80
2021/04/30 11:31:07;;;;;;;17.63;12.38;;;8.80;99.90;;;;;;5043480;28;20128;-81
2021/04/30 11:33:38;;;;;;;17.45;12.98;;;8.80;99.90;;;;;;5015650;28;20060;-81
2021/04/30 11:36:08;;;;;;;15.18;11.45;;;8.80;99.90;;;;;;5033315;28;20026;-80
2021/04/30 11:38:41;;;;;;;17.40;11.85;;;8.90;99.90;;;;;;5033421;28;20022;-80
2021/04/30 11:41:08;;;;;;;14.32;10.60;;;8.90;99.90;;;;;;5015538;28;20599;-81
2021/04/30 11:43:37;;;;;;;16.45;12.65;;;8.80;99.90;;;;;;5033206;28;20091;-81
2021/04/30 11:46:03;;;;;;;15.75;12.00;;;8.80;99.90;;;;;;5015430;28;20022;-81
2021/04/30 11:48:30;;;;;;;14.13;11.20;;;8.80;99.90;;;;;;5015428;28;20026;-81
2021/04/30 11:50:59;;;;;;;13.70;9.88;;;8.80;99.90;;;;;;5015490;28;20021;-81
2021/04/30 11:53:25;;;;;;;12.88;10.18;;;8.80;99.90;;;;;;5033091;28;20044;-82
2021/04/30 11:55:51;;;;;;;14.85;10.63;;;8.80;99.90;;;;;;5033669;28;20017;-81
2021/04/30 11:58:17;;;;;;;13.85;11.82;;;8.80;99.90;;;;;;5015399;28;20034;-80
2021/04/30 12:00:44;;;;;;;13.18;10.02;;;8.60;99.90;;;;;;5033335;28;20086;-80
2021/04/30 12:03:10;;;;;;;12.10;9.43;;;8.70;99.90;;;;;;5015353;28;20026;-80
2021/04/30 12:05:39;;;;;;;13.10;9.98;;;8.70;99.90;;;;;;5015237;28;20393;-81
2021/04/30 12:08:05;;;;;;;13.52;10.23;;;8.60;99.90;;;;;;5033260;28;20022;-81
2021/04/30 12:10:33;;;;;;;13.95;10.18;;;8.70;99.90;;;;;;5033019;28;20075;-81
2021/04/30 12:12:59;;;;;;;12.38;10.35;;;8.70;99.90;;;;;;5015150;28;20029;-81
2021/04/30 12:15:33;;;;;;;11.20;9.00;;;8.50;99.90;;;;;;5032927;28;20025;-81
2021/04/30 12:17:59;;;;;;;13.00;9.63;;;8.40;99.90;;;;;;5032928;28;20021;-80
2021/04/30 12:20:26;;;;;;;13.77;9.68;;;8.60;99.90;;;;;;5015174;28;20033;-80
2021/04/30 12:22:58;;;;;;;15.98;11.88;;;8.60;99.90;;;;;;5015084;28;20554;-81
2021/04/30 12:25:27;;;;;;;11.15;9.57;;;8.40;99.90;;;;;;5034624;28;20392;-81
2021/04/30 12:27:54;;;;;;;13.95;9.73;;;8.40;99.90;;;;;;5018934;28;20033;-81
2021/04/30 12:30:29;;;;;;;11.45;9.35;;;8.40;99.90;;;;;;5024143;28;20095;-80
2021/04/30 12:32:55;;;;;;;;;;;8.50;99.90;;;;;;5055626;28;20484;-81
2021/04/30 12:35:21;;;;;;;12.68;9.07;;;8.70;99.90;;;;;;5055292;28;19912;-80
2021/04/30 12:37:47;;;;;;;10.35;9.18;;;8.70;99.90;;;;;;5056369;28;20096;-81
2021/04/30 12:40:14;;;;;;;10.98;8.25;;;8.50;99.90;;;;;;5056587;28;20047;-81
2021/04/30 12:42:48;;;;;;;10.63;8.55;;;8.40;99.90;;;;;;5055074;28;20025;-81
2021/04/30 12:45:15;;;;;;;12.50;9.00;;;8.40;99.90;;;;;;5055131;28;20488;-81
2021/04/30 12:47:42;;;;;;;12.57;8.38;;;8.40;99.90;;;;;;5056359;28;20032;-80
2021/04/30 12:50:11;;;;;;;8.63;7.43;;;8.50;99.90;;;;;;5056294;28;20100;-81